createdAt,value
2023-05-02T00:00:49.657Z,10.80
2023-05-02T00:01:49.668Z,10.80
2023-05-02T00:02:49.579Z,10.00
2023-05-02T00:03:49.713Z,12.30
2023-05-02T00:04:49.591Z,10.50
2023-05-02T00:05:49.544Z,11.20
2023-05-02T00:06:49.690Z,11.40
2023-05-02T00:07:49.535Z,11.40
2023-05-02T00:08:49.647Z,11.40
2023-05-02T00:09:49.500Z,10.70
2023-05-02T00:10:49.553Z,11.40
2023-05-02T00:11:49.566Z,11.30
2023-05-02T00:12:49.460Z,10.90
2023-05-02T00:13:49.475Z,11.60
2023-05-02T00:14:49.617Z,10.50
2023-05-02T00:15:49.445Z,11.70
2023-05-02T00:16:49.515Z,13.10
2023-05-02T00:17:49.555Z,11.00
2023-05-02T00:18:49.259Z,11.00
2023-05-02T00:19:49.442Z,11.70
2023-05-02T00:20:49.444Z,11.90
2023-05-02T00:21:49.469Z,10.70
2023-05-02T00:22:49.360Z,10.70
2023-05-02T00:23:49.350Z,10.90
2023-05-02T00:24:49.348Z,11.60
2023-05-02T00:25:49.326Z,11.10
2023-05-02T00:26:49.321Z,10.50
2023-05-02T00:27:49.414Z,10.50
2023-05-02T00:28:49.319Z,10.90
2023-05-02T00:29:49.317Z,11.00
2023-05-02T00:30:49.433Z,11.60
2023-05-02T00:31:49.271Z,12.40
2023-05-02T00:32:49.325Z,12.90
2023-05-02T00:33:49.284Z,11.10
2023-05-02T00:34:49.127Z,12.00
2023-05-02T00:35:49.281Z,10.70
2023-05-02T00:36:49.266Z,10.90
2023-05-02T00:37:49.111Z,11.10
2023-05-02T00:38:49.249Z,11.20
2023-05-02T00:39:49.153Z,12.30
2023-05-02T00:40:49.128Z,10.60
2023-05-02T00:41:49.122Z,11.30
2023-05-02T00:42:49.253Z,11.30
2023-05-02T00:43:49.150Z,13.40
2023-05-02T00:44:49.133Z,10.20
2023-05-02T00:45:49.133Z,11.70
2023-05-02T00:46:49.265Z,10.70
2023-05-02T00:47:49.276Z,11.20
2023-05-02T00:48:49.158Z,11.20
2023-05-02T00:49:49.131Z,11.00
2023-05-02T00:50:49.106Z,10.70
2023-05-02T00:51:49.092Z,11.80
2023-05-02T00:52:48.996Z,10.60
2023-05-02T00:53:48.894Z,11.20
2023-05-02T00:54:49.123Z,11.60
2023-05-02T00:55:49.019Z,10.50
2023-05-02T00:56:48.998Z,11.80
2023-05-02T00:57:48.996Z,10.90
2023-05-02T00:58:48.881Z,10.60
2023-05-02T00:59:48.993Z,10.90
2023-05-02T01:00:49.032Z,11.00
2023-05-02T01:01:49.018Z,9.40
2023-05-02T01:02:49.164Z,10.90
2023-05-02T01:03:49.082Z,10.00
2023-05-02T01:04:49.057Z,9.20
2023-05-02T01:05:48.816Z,10.50
2023-05-02T01:06:48.980Z,10.60
2023-05-02T01:07:48.933Z,9.10
2023-05-02T01:08:48.935Z,11.80
2023-05-02T01:09:48.932Z,12.00
2023-05-02T01:10:48.967Z,11.10
2023-05-02T01:11:48.896Z,10.90
2023-05-02T01:12:48.887Z,10.30
2023-05-02T01:13:48.893Z,10.80
2023-05-02T01:14:48.843Z,10.80
2023-05-02T01:15:49.003Z,11.30
2023-05-02T01:16:48.865Z,11.50
2023-05-02T01:17:48.824Z,11.30
2023-05-02T01:18:48.792Z,12.60
2023-05-02T01:19:48.791Z,12.20
2023-05-02T01:20:48.868Z,11.20
2023-05-02T01:21:48.792Z,11.10
2023-05-02T01:22:48.772Z,13.10
2023-05-02T01:23:48.691Z,11.30
2023-05-02T01:24:48.773Z,11.00
2023-05-02T01:25:48.767Z,11.50
2023-05-02T01:26:48.756Z,12.70
2023-05-02T01:27:48.750Z,12.70
2023-05-02T01:28:48.670Z,12.20
2023-05-02T01:29:48.663Z,14.10
2023-05-02T01:30:48.631Z,13.00
2023-05-02T01:31:48.839Z,12.70
2023-05-02T01:32:48.735Z,13.90
2023-05-02T01:33:48.664Z,13.10
2023-05-02T01:34:48.642Z,14.50
2023-05-02T01:35:48.650Z,13.00
2023-05-02T01:36:48.664Z,15.50
2023-05-02T01:37:48.584Z,14.50
2023-05-02T01:38:48.587Z,15.30
2023-05-02T01:39:48.596Z,15.30
2023-05-02T01:40:48.594Z,14.40
2023-05-02T01:41:48.679Z,13.80
2023-05-02T01:42:48.630Z,15.80
2023-05-02T01:43:48.613Z,14.80
2023-05-02T01:44:48.604Z,14.70
2023-05-02T01:45:48.586Z,14.80
2023-05-02T01:46:48.665Z,15.10
2023-05-02T01:47:48.848Z,15.10
2023-05-02T01:48:48.459Z,16.70
2023-05-02T01:49:48.411Z,15.20
2023-05-02T01:50:48.484Z,14.20
2023-05-02T01:51:48.551Z,14.30
2023-05-02T01:52:48.384Z,17.00
2023-05-02T01:53:48.424Z,15.70
2023-05-02T01:54:48.425Z,16.10
2023-05-02T01:55:48.419Z,16.20
2023-05-02T01:56:48.444Z,15.10
2023-05-02T01:57:48.528Z,16.20
2023-05-02T01:58:48.406Z,16.10
2023-05-02T01:59:48.382Z,15.20
2023-05-02T02:00:48.462Z,16.60
2023-05-02T02:01:48.405Z,19.20
2023-05-02T02:02:48.423Z,17.00
2023-05-02T02:03:48.390Z,18.30
2023-05-02T02:04:48.549Z,20.10
2023-05-02T02:05:48.310Z,20.10
2023-05-02T02:06:48.546Z,20.00
2023-05-02T02:07:48.215Z,20.60
2023-05-02T02:08:48.105Z,19.70
2023-05-02T02:09:48.267Z,19.10
2023-05-02T02:10:48.272Z,20.70
2023-05-02T02:11:48.275Z,20.30
2023-05-02T02:12:48.358Z,19.30
2023-05-02T02:13:48.202Z,21.40
2023-05-02T02:14:48.279Z,20.40
2023-05-02T02:15:48.251Z,21.70
2023-05-02T02:16:48.254Z,21.80
2023-05-02T02:17:48.297Z,20.80
2023-05-02T02:18:48.206Z,21.00
2023-05-02T02:19:48.204Z,20.20
2023-05-02T02:20:48.283Z,19.70
2023-05-02T02:21:48.148Z,22.20
2023-05-02T02:22:48.053Z,21.90
2023-05-02T02:23:48.191Z,22.40
2023-05-02T02:24:48.070Z,21.00
2023-05-02T02:25:48.178Z,22.40
2023-05-02T02:26:48.079Z,21.00
2023-05-02T02:27:48.039Z,22.70
2023-05-02T02:28:48.054Z,24.40
2023-05-02T02:29:48.191Z,22.50
2023-05-02T02:30:48.104Z,23.30
2023-05-02T02:31:48.067Z,23.70
2023-05-02T02:32:48.131Z,24.30
2023-05-02T02:33:48.070Z,25.30
2023-05-02T02:34:48.014Z,25.90
2023-05-02T02:35:48.118Z,27.60
2023-05-02T02:36:48.075Z,25.10
2023-05-02T02:37:47.931Z,26.80
2023-05-02T02:38:48.028Z,25.30
2023-05-02T02:39:48.051Z,26.50
2023-05-02T02:40:47.988Z,28.60
2023-05-02T02:41:48.075Z,28.20
2023-05-02T02:42:48.030Z,27.90
2023-05-02T02:43:47.920Z,29.10
2023-05-02T02:44:47.935Z,29.30
2023-05-02T02:45:47.951Z,29.10
2023-05-02T02:46:48.206Z,28.40
2023-05-02T02:47:47.972Z,31.00
2023-05-02T02:48:48.004Z,29.10
2023-05-02T02:49:47.844Z,30.90
2023-05-02T02:50:47.757Z,29.00
2023-05-02T02:51:47.741Z,30.90
2023-05-02T02:52:47.825Z,29.80
2023-05-02T02:53:47.730Z,29.30
2023-05-02T02:54:47.737Z,30.90
2023-05-02T02:55:47.668Z,30.00
2023-05-02T02:56:47.785Z,28.00
2023-05-02T02:57:47.777Z,31.10
2023-05-02T02:58:47.750Z,29.60
2023-05-02T02:59:47.883Z,30.40
2023-05-02T03:00:47.837Z,32.30
2023-05-02T03:01:47.660Z,30.60
2023-05-02T03:02:47.834Z,31.10
2023-05-02T03:03:47.793Z,31.50
2023-05-02T03:04:47.608Z,29.90
2023-05-02T03:05:47.691Z,28.60
2023-05-02T03:06:47.679Z,30.40
2023-05-02T03:07:47.700Z,29.60
2023-05-02T03:08:47.636Z,31.10
2023-05-02T03:09:47.618Z,27.70
2023-05-02T03:10:47.518Z,28.00
2023-05-02T03:11:47.493Z,26.70
2023-05-02T03:12:47.693Z,28.60
2023-05-02T03:13:47.704Z,27.30
2023-05-02T03:14:47.706Z,28.10
2023-05-02T03:15:47.779Z,28.20
2023-05-02T03:16:47.652Z,26.70
2023-05-02T03:17:47.688Z,26.40
2023-05-02T03:18:47.537Z,27.10
2023-05-02T03:19:47.704Z,27.70
2023-05-02T03:20:47.680Z,26.80
2023-05-02T03:21:47.608Z,27.10
2023-05-02T03:22:47.431Z,25.00
2023-05-02T03:23:47.595Z,25.60
2023-05-02T03:24:47.526Z,26.40
2023-05-02T03:25:47.584Z,28.20
2023-05-02T03:26:47.662Z,27.40
2023-05-02T03:27:47.567Z,27.60
2023-05-02T03:28:47.442Z,27.80
2023-05-02T03:29:47.351Z,30.00
2023-05-02T03:30:47.291Z,28.80
2023-05-02T03:31:47.476Z,29.60
2023-05-02T03:32:47.471Z,29.20
2023-05-02T03:33:47.362Z,30.80
2023-05-02T03:34:47.367Z,29.80
2023-05-02T03:35:47.360Z,32.10
2023-05-02T03:36:47.376Z,30.90
2023-05-02T03:37:47.249Z,31.90
2023-05-02T03:38:47.295Z,30.60
2023-05-02T03:39:47.293Z,31.20
2023-05-02T03:40:47.301Z,30.60
2023-05-02T03:41:47.301Z,34.40
2023-05-02T03:42:47.389Z,29.70
2023-05-02T03:43:47.314Z,31.90
2023-05-02T03:44:47.234Z,33.10
2023-05-02T03:45:48.808Z,32.60
2023-05-02T03:46:47.330Z,33.10
2023-05-02T03:47:47.242Z,34.20
2023-05-02T03:48:47.085Z,32.30
2023-05-02T03:49:47.073Z,32.00
2023-05-02T03:50:47.037Z,32.30
2023-05-02T03:51:47.167Z,33.20
2023-05-02T03:52:47.112Z,33.50
2023-05-02T03:53:47.036Z,34.90
2023-05-02T03:54:47.069Z,34.90
2023-05-02T03:55:47.084Z,31.90
2023-05-02T03:56:47.147Z,34.40
2023-05-02T03:57:47.112Z,32.00
2023-05-02T03:58:47.199Z,34.30
2023-05-02T03:59:47.211Z,31.30
2023-05-02T04:00:46.983Z,32.20
2023-05-02T04:01:46.969Z,32.40
2023-05-02T04:02:47.282Z,35.10
2023-05-02T04:03:47.059Z,34.60
2023-05-02T04:04:47.568Z,36.40
2023-05-02T04:05:47.178Z,37.70
2023-05-02T04:06:47.232Z,38.10
2023-05-02T04:07:46.909Z,40.50
2023-05-02T04:08:47.030Z,37.00
2023-05-02T04:09:47.070Z,40.70
2023-05-02T04:10:47.099Z,39.60
2023-05-02T04:11:46.962Z,42.10
2023-05-02T04:12:47.069Z,41.20
2023-05-02T04:13:47.031Z,42.70
2023-05-02T04:14:47.033Z,42.70
2023-05-02T04:15:46.948Z,41.60
2023-05-02T04:16:47.060Z,41.70
2023-05-02T04:17:46.966Z,44.40
2023-05-02T04:18:46.963Z,42.30
2023-05-02T04:19:46.949Z,45.40
2023-05-02T04:20:46.933Z,41.30
2023-05-02T04:21:47.007Z,42.50
2023-05-02T04:22:46.776Z,42.70
2023-05-02T04:23:46.863Z,43.30
2023-05-02T04:24:46.795Z,42.80
2023-05-02T04:25:46.821Z,45.90
2023-05-02T04:26:46.908Z,42.20
2023-05-02T04:27:46.859Z,45.00
2023-05-02T04:28:46.877Z,45.10
2023-05-02T04:29:46.826Z,43.60
2023-05-02T04:30:46.905Z,45.80
2023-05-02T04:31:46.836Z,40.30
2023-05-02T04:32:46.776Z,41.70
2023-05-02T04:33:46.834Z,41.90
2023-05-02T04:34:46.771Z,39.00
2023-05-02T04:35:46.795Z,40.40
2023-05-02T04:36:46.820Z,39.90
2023-05-02T04:37:46.624Z,35.80
2023-05-02T04:38:46.712Z,39.50
2023-05-02T04:39:46.864Z,36.00
2023-05-02T04:40:46.701Z,35.00
2023-05-02T04:41:46.546Z,35.30
2023-05-02T04:42:46.565Z,34.20
2023-05-02T04:43:46.899Z,35.20
2023-05-02T04:44:46.490Z,35.10
2023-05-02T04:45:46.725Z,32.80
2023-05-02T04:46:46.618Z,31.80
2023-05-02T04:47:46.636Z,31.80
2023-05-02T04:48:46.632Z,30.00
2023-05-02T04:49:46.499Z,32.60
2023-05-02T04:50:46.499Z,33.80
2023-05-02T04:51:46.504Z,32.80
2023-05-02T04:52:46.472Z,32.30
2023-05-02T04:53:46.651Z,32.20
2023-05-02T04:54:46.539Z,33.20
2023-05-02T04:55:46.475Z,32.30
2023-05-02T04:56:46.581Z,31.40
2023-05-02T04:57:46.521Z,32.60
2023-05-02T04:58:46.594Z,33.30
2023-05-02T04:59:46.501Z,31.50
2023-05-02T05:00:46.528Z,32.50
2023-05-02T05:01:46.558Z,35.50
2023-05-02T05:02:46.637Z,33.40
2023-05-02T05:03:46.569Z,32.70
2023-05-02T05:04:46.513Z,33.30
2023-05-02T05:05:46.423Z,31.70
2023-05-02T05:06:46.503Z,33.70
2023-05-02T05:07:46.338Z,32.50
2023-05-02T05:08:46.419Z,33.10
2023-05-02T05:09:46.448Z,34.00
2023-05-02T05:10:46.483Z,34.40
2023-05-02T05:11:46.231Z,32.50
2023-05-02T05:12:46.433Z,31.20
2023-05-02T05:13:46.397Z,31.20
2023-05-02T05:14:46.408Z,32.00
2023-05-02T05:15:46.477Z,31.20
2023-05-02T05:16:46.433Z,32.40
2023-05-02T05:17:46.441Z,33.00
2023-05-02T05:18:46.341Z,33.00
2023-05-02T05:19:46.418Z,34.80
2023-05-02T05:20:46.335Z,30.30
2023-05-02T05:21:46.407Z,32.40
2023-05-02T05:22:46.125Z,32.40
2023-05-02T05:23:46.433Z,36.10
2023-05-02T05:24:46.279Z,30.80
2023-05-02T05:25:46.368Z,32.70
2023-05-02T05:26:46.280Z,31.30
2023-05-02T05:27:46.224Z,27.90
2023-05-02T05:28:46.322Z,27.60
2023-05-02T05:29:46.250Z,26.90
2023-05-02T05:30:46.188Z,25.60
2023-05-02T05:31:46.276Z,26.80
2023-05-02T05:32:46.236Z,27.60
2023-05-02T05:33:46.147Z,29.00
2023-05-02T05:34:46.278Z,26.50
2023-05-02T05:35:46.218Z,28.50
2023-05-02T05:36:46.233Z,28.00
2023-05-02T05:37:45.943Z,30.60
2023-05-02T05:38:46.241Z,29.30
2023-05-02T05:39:46.114Z,27.90
2023-05-02T05:40:46.132Z,26.50
2023-05-02T05:41:46.140Z,28.90
2023-05-02T05:42:46.063Z,27.70
2023-05-02T05:43:46.128Z,31.20
2023-05-02T05:44:46.064Z,30.00
2023-05-02T05:45:46.215Z,29.80
2023-05-02T05:46:46.072Z,27.70
2023-05-02T05:47:46.081Z,29.10
2023-05-02T05:48:46.047Z,29.20
2023-05-02T05:49:46.161Z,29.00
2023-05-02T05:50:46.043Z,28.50
2023-05-02T05:51:46.029Z,28.10
2023-05-02T05:52:45.942Z,28.10
2023-05-02T05:53:46.011Z,30.00
2023-05-02T05:54:46.032Z,29.00
2023-05-02T05:55:45.931Z,27.20
2023-05-02T05:56:46.021Z,25.30
2023-05-02T05:57:45.950Z,25.80
2023-05-02T05:58:45.964Z,24.80
2023-05-02T05:59:45.960Z,24.00
2023-05-02T06:00:45.956Z,25.70
2023-05-02T06:01:45.940Z,23.30
2023-05-02T06:02:45.991Z,23.20
2023-05-02T06:03:45.776Z,23.70
2023-05-02T06:04:45.954Z,24.80
2023-05-02T06:05:45.955Z,23.20
2023-05-02T06:06:45.912Z,23.00
2023-05-02T06:07:45.742Z,24.20
2023-05-02T06:08:45.880Z,23.40
2023-05-02T06:09:45.676Z,21.30
2023-05-02T06:10:45.835Z,23.80
2023-05-02T06:11:45.660Z,23.10
2023-05-02T06:12:47.173Z,20.10
2023-05-02T06:13:45.660Z,17.90
2023-05-02T06:14:45.628Z,17.50
2023-05-02T06:15:45.859Z,17.40
2023-05-02T06:16:45.800Z,16.90
2023-05-02T06:17:45.835Z,16.70
2023-05-02T06:18:45.760Z,17.80
2023-05-02T06:19:45.742Z,12.90
2023-05-02T06:20:45.731Z,14.30
2023-05-02T06:21:45.702Z,13.10
2023-05-02T06:22:45.585Z,10.40
2023-05-02T06:23:45.747Z,10.90
2023-05-02T06:24:45.835Z,10.70
2023-05-02T06:25:45.721Z,10.20
2023-05-02T06:26:45.809Z,8.60
2023-05-02T06:27:45.665Z,6.60
2023-05-02T06:28:45.536Z,9.40
2023-05-02T06:29:45.541Z,9.20
2023-05-02T06:30:45.541Z,9.50
2023-05-02T06:31:45.471Z,9.30
2023-05-02T06:32:45.574Z,9.00
2023-05-02T06:33:45.462Z,8.00
2023-05-02T06:34:45.516Z,10.30
2023-05-02T06:35:45.568Z,8.90
2023-05-02T06:36:45.538Z,9.60
2023-05-02T06:37:45.482Z,10.10
2023-05-02T06:38:45.532Z,9.80
2023-05-02T06:39:45.501Z,10.80
2023-05-02T06:40:45.520Z,10.00
2023-05-02T06:41:45.513Z,10.20
2023-05-02T06:42:45.338Z,11.40
2023-05-02T06:43:45.513Z,10.80
2023-05-02T06:44:45.490Z,10.80
2023-05-02T06:45:45.569Z,12.60
2023-05-02T06:46:45.527Z,10.00
2023-05-02T06:47:45.567Z,9.70
2023-05-02T06:48:45.409Z,10.70
2023-05-02T06:49:45.401Z,10.90
2023-05-02T06:50:45.395Z,13.00
2023-05-02T06:51:45.466Z,10.80
2023-05-02T06:52:45.360Z,11.80
2023-05-02T06:53:45.276Z,11.70
2023-05-02T06:54:45.475Z,12.50
2023-05-02T06:55:45.343Z,10.50
2023-05-02T06:56:45.454Z,12.40
2023-05-02T06:57:45.336Z,12.30
2023-05-02T06:58:45.306Z,11.50
2023-05-02T06:59:45.286Z,11.90
2023-05-02T07:00:45.318Z,10.60
2023-05-02T07:01:45.337Z,13.20
2023-05-02T07:02:45.417Z,13.90
2023-05-02T07:03:45.367Z,13.10
2023-05-02T07:04:45.353Z,10.10
2023-05-02T07:05:45.245Z,14.10
2023-05-02T07:06:45.300Z,13.50
2023-05-02T07:07:45.324Z,12.10
2023-05-02T07:08:45.203Z,12.10
2023-05-02T07:09:45.189Z,12.80
2023-05-02T07:10:45.263Z,12.30
2023-05-02T07:11:45.165Z,12.20
2023-05-02T07:12:45.109Z,12.80
2023-05-02T07:13:45.139Z,12.40
2023-05-02T07:14:45.052Z,11.80
2023-05-02T07:15:44.992Z,12.60
2023-05-02T07:16:45.105Z,13.10
2023-05-02T07:17:45.086Z,12.50
2023-05-02T07:18:45.032Z,13.70
2023-05-02T07:19:45.598Z,11.00
2023-05-02T07:20:45.096Z,12.10
2023-05-02T07:21:44.995Z,12.30
2023-05-02T07:22:45.070Z,13.90
2023-05-02T07:23:44.993Z,12.30
2023-05-02T07:24:45.026Z,12.00
2023-05-02T07:25:44.967Z,11.90
2023-05-02T07:26:44.947Z,13.50
2023-05-02T07:27:44.937Z,13.60
2023-05-02T07:28:45.018Z,14.70
2023-05-02T07:29:45.095Z,12.30
2023-05-02T07:30:45.066Z,11.80
2023-05-02T07:31:45.077Z,15.30
2023-05-02T07:32:45.005Z,12.30
2023-05-02T07:33:44.932Z,12.80
2023-05-02T07:34:44.917Z,13.50
2023-05-02T07:35:45.009Z,13.50
2023-05-02T07:36:44.791Z,16.00
2023-05-02T07:37:44.764Z,12.80
2023-05-02T07:38:44.931Z,13.50
2023-05-02T07:39:44.924Z,12.80
2023-05-02T07:40:44.726Z,14.40
2023-05-02T07:41:44.899Z,13.70
2023-05-02T07:42:44.716Z,12.00
2023-05-02T07:43:44.826Z,14.10
2023-05-02T07:44:44.993Z,13.10
2023-05-02T07:45:44.872Z,14.20
2023-05-02T07:46:44.736Z,13.60
2023-05-02T07:47:45.004Z,13.70
2023-05-02T07:48:44.906Z,12.30
2023-05-02T07:49:44.806Z,14.90
2023-05-02T07:50:44.768Z,16.90
2023-05-02T07:51:44.919Z,12.70
2023-05-02T07:52:44.655Z,12.70
2023-05-02T07:53:44.763Z,16.30
2023-05-02T07:54:44.727Z,14.60
2023-05-02T07:55:44.749Z,14.90
2023-05-02T07:56:44.792Z,14.40
2023-05-02T07:57:44.763Z,18.10
2023-05-02T07:58:44.698Z,12.20
2023-05-02T07:59:44.663Z,16.30
2023-05-02T08:00:44.698Z,13.60
2023-05-02T08:01:44.681Z,12.50
2023-05-02T08:02:44.592Z,15.60
2023-05-02T08:03:44.702Z,15.60
2023-05-02T08:04:44.649Z,15.00
2023-05-02T08:05:44.708Z,13.60
2023-05-02T08:06:44.681Z,14.40
2023-05-02T08:07:44.476Z,16.30
2023-05-02T08:08:44.648Z,13.50
2023-05-02T08:09:44.681Z,12.10
2023-05-02T08:10:44.734Z,14.60
2023-05-02T08:11:44.541Z,15.20
2023-05-02T08:12:44.506Z,14.50
2023-05-02T08:13:44.423Z,12.50
2023-05-02T08:14:44.400Z,14.40
2023-05-02T08:15:44.549Z,16.70
2023-05-02T08:16:46.171Z,15.40
2023-05-02T08:17:44.564Z,13.70
2023-05-02T08:18:44.601Z,17.40
2023-05-02T08:19:44.472Z,14.00
2023-05-02T08:20:44.528Z,16.20
2023-05-02T08:21:44.382Z,15.50
2023-05-02T08:22:44.370Z,17.70
2023-05-02T08:23:44.532Z,16.20
2023-05-02T08:24:44.452Z,15.20
2023-05-02T08:25:44.426Z,15.70
2023-05-02T08:26:44.403Z,15.90
2023-05-02T08:27:44.370Z,15.30
2023-05-02T08:28:44.423Z,15.70
2023-05-02T08:29:44.423Z,17.00
2023-05-02T08:30:44.253Z,15.50
2023-05-02T08:31:44.476Z,16.40
2023-05-02T08:32:44.413Z,13.40
2023-05-02T08:33:44.335Z,16.50
2023-05-02T08:34:44.417Z,15.20
2023-05-02T08:35:44.265Z,16.80
2023-05-02T08:36:44.283Z,14.60
2023-05-02T08:37:44.252Z,17.80
2023-05-02T08:38:44.200Z,16.00
2023-05-02T08:39:44.174Z,17.10
2023-05-02T08:40:44.201Z,17.30
2023-05-02T08:41:44.229Z,15.40
2023-05-02T08:42:44.210Z,15.40
2023-05-02T08:43:44.113Z,15.40
2023-05-02T08:44:44.095Z,16.00
2023-05-02T08:45:44.044Z,16.40
2023-05-02T08:46:44.126Z,17.60
2023-05-02T08:47:44.062Z,15.90
2023-05-02T08:48:44.015Z,16.40
2023-05-02T08:49:43.989Z,17.20
2023-05-02T08:50:44.037Z,17.00
2023-05-02T08:51:43.948Z,17.40
2023-05-02T08:52:44.114Z,15.80
2023-05-02T08:53:44.114Z,17.10
2023-05-02T08:54:44.095Z,21.70
2023-05-02T08:55:44.067Z,18.30
2023-05-02T08:56:43.974Z,15.60
2023-05-02T08:57:43.950Z,19.90
2023-05-02T08:58:44.166Z,19.90
2023-05-02T08:59:44.027Z,18.70
2023-05-02T09:00:44.128Z,15.40
2023-05-02T09:01:44.117Z,17.40
2023-05-02T09:02:44.120Z,16.40
2023-05-02T09:03:44.014Z,19.40
2023-05-02T09:04:44.053Z,15.80
2023-05-02T09:05:43.897Z,18.80
2023-05-02T09:06:44.025Z,20.50
2023-05-02T09:07:43.946Z,18.40
2023-05-02T09:08:43.964Z,18.90
2023-05-02T09:09:43.885Z,18.70
2023-05-02T09:10:43.977Z,16.80
2023-05-02T09:11:43.906Z,18.10
2023-05-02T09:12:43.933Z,17.00
2023-05-02T09:13:43.949Z,16.80
2023-05-02T09:14:43.860Z,18.10
2023-05-02T09:15:43.883Z,15.60
2023-05-02T09:16:44.059Z,15.30
2023-05-02T09:17:44.198Z,19.50
2023-05-02T09:18:43.894Z,16.90
2023-05-02T09:19:43.987Z,17.40
2023-05-02T09:20:44.006Z,15.60
2023-05-02T09:21:43.812Z,17.20
2023-05-02T09:22:43.783Z,17.60
2023-05-02T09:23:43.767Z,17.00
2023-05-02T09:24:43.692Z,17.30
2023-05-02T09:25:43.673Z,18.70
2023-05-02T09:26:43.760Z,19.30
2023-05-02T09:27:43.754Z,16.10
2023-05-02T09:28:43.638Z,18.50
2023-05-02T09:29:43.816Z,17.10
2023-05-02T09:30:43.632Z,17.30
2023-05-02T09:31:55.512Z,15.50
2023-05-02T09:32:43.610Z,17.40
2023-05-02T09:33:43.714Z,15.80
2023-05-02T09:34:43.772Z,16.10
2023-05-02T09:35:43.724Z,21.20
2023-05-02T09:36:43.789Z,19.90
2023-05-02T09:37:43.779Z,16.30
2023-05-02T09:38:43.507Z,17.60
2023-05-02T09:39:43.535Z,16.00
2023-05-02T09:40:43.527Z,17.30
2023-05-02T09:41:43.770Z,14.30
2023-05-02T09:42:43.676Z,16.30
2023-05-02T09:43:43.595Z,20.00
2023-05-02T09:44:43.514Z,17.40
2023-05-02T09:45:43.613Z,19.20
2023-05-02T09:46:43.630Z,15.50
2023-05-02T09:47:43.666Z,18.80
2023-05-02T09:48:43.496Z,18.00
2023-05-02T09:49:43.578Z,19.10
2023-05-02T09:50:43.475Z,18.90
2023-05-02T09:51:43.426Z,16.20
2023-05-02T09:52:43.409Z,13.30
2023-05-02T09:53:43.456Z,16.80
2023-05-02T09:54:43.394Z,17.70
2023-05-02T09:55:43.566Z,18.80
2023-05-02T09:56:43.420Z,18.10
2023-05-02T09:57:43.546Z,17.00
2023-05-02T09:58:43.448Z,17.50
2023-05-02T09:59:43.326Z,14.60
2023-05-02T10:00:43.365Z,20.40
2023-05-02T10:01:43.518Z,18.40
2023-05-02T10:02:43.492Z,19.50
2023-05-02T10:03:43.345Z,18.80
2023-05-02T10:04:43.350Z,15.60
2023-05-02T10:05:43.241Z,17.70
2023-05-02T10:06:43.356Z,19.10
2023-05-02T10:07:43.461Z,20.90
2023-05-02T10:08:43.389Z,16.60
2023-05-02T10:09:43.351Z,20.10
2023-05-02T10:10:43.306Z,17.80
2023-05-02T10:11:43.304Z,18.10
2023-05-02T10:12:43.467Z,18.00
2023-05-02T10:13:43.341Z,17.00
2023-05-02T10:14:43.313Z,16.50
2023-05-02T10:15:43.363Z,17.00
2023-05-02T10:16:43.169Z,14.60
2023-05-02T10:17:43.493Z,16.90
2023-05-02T10:18:43.288Z,16.20
2023-05-02T10:19:43.287Z,18.70
2023-05-02T10:20:43.275Z,15.50
2023-05-02T10:21:43.237Z,13.70
2023-05-02T10:22:43.229Z,14.90
2023-05-02T10:23:43.203Z,16.50
2023-05-02T10:24:43.181Z,15.00
2023-05-02T10:25:43.241Z,15.60
2023-05-02T10:26:43.139Z,13.70
2023-05-02T10:27:43.277Z,12.90
2023-05-02T10:28:43.175Z,14.60
2023-05-02T10:29:43.148Z,15.10
2023-05-02T10:30:43.105Z,12.10
2023-05-02T10:31:44.793Z,12.90
2023-05-02T10:32:43.139Z,13.10
2023-05-02T10:33:43.107Z,14.90
2023-05-02T10:34:43.036Z,12.30
2023-05-02T10:35:43.015Z,12.40
2023-05-02T10:36:42.970Z,12.60
2023-05-02T10:37:43.054Z,13.00
2023-05-02T10:38:43.061Z,12.10
2023-05-02T10:39:43.055Z,13.60
2023-05-02T10:40:42.914Z,12.20
2023-05-02T10:41:43.024Z,12.10
2023-05-02T10:42:42.863Z,15.10
2023-05-02T10:43:42.878Z,15.20
2023-05-02T10:44:42.955Z,12.00
2023-05-02T10:45:42.929Z,10.90
2023-05-02T10:46:42.887Z,11.80
2023-05-02T10:47:43.046Z,10.20
2023-05-02T10:48:42.919Z,10.00
2023-05-02T10:49:42.823Z,13.10
2023-05-02T10:50:42.778Z,11.50
2023-05-02T10:51:42.752Z,12.40
2023-05-02T10:52:42.802Z,10.60
2023-05-02T10:53:42.829Z,11.00
2023-05-02T10:54:42.739Z,12.80
2023-05-02T10:55:42.810Z,11.20
2023-05-02T10:56:42.733Z,12.20
2023-05-02T10:57:42.815Z,12.00
2023-05-02T10:58:42.780Z,10.90
2023-05-02T10:59:42.771Z,11.30
2023-05-02T11:00:42.826Z,10.70
2023-05-02T11:01:42.797Z,11.80
2023-05-02T11:02:42.926Z,14.70
2023-05-02T11:03:42.846Z,13.40
2023-05-02T11:04:42.812Z,11.10
2023-05-02T11:05:42.723Z,10.10
2023-05-02T11:06:42.800Z,13.80
2023-05-02T11:07:42.714Z,13.80
2023-05-02T11:08:42.805Z,13.90
2023-05-02T11:09:42.719Z,14.80
2023-05-02T11:10:42.702Z,15.80
2023-05-02T11:11:43.002Z,20.20
2023-05-02T11:12:42.724Z,18.50
2023-05-02T11:13:42.548Z,16.60
2023-05-02T11:14:42.784Z,17.60
2023-05-02T11:15:42.709Z,13.90
2023-05-02T11:16:42.614Z,14.90
2023-05-02T11:17:42.629Z,12.40
2023-05-02T11:18:42.599Z,14.90
2023-05-02T11:19:42.711Z,14.60
2023-05-02T11:20:42.570Z,14.20
2023-05-02T11:21:42.555Z,13.90
2023-05-02T11:22:42.537Z,13.90
2023-05-02T11:23:42.629Z,14.10
2023-05-02T11:24:42.700Z,17.40
2023-05-02T11:25:42.661Z,14.10
2023-05-02T11:26:42.554Z,12.40
2023-05-02T11:27:42.527Z,12.60
2023-05-02T11:28:42.525Z,13.50
2023-05-02T11:29:42.580Z,14.30
2023-05-02T11:30:42.590Z,16.30
2023-05-02T11:31:42.611Z,13.60
2023-05-02T11:32:42.610Z,14.40
2023-05-02T11:33:42.381Z,13.40
2023-05-02T11:34:42.450Z,15.00
2023-05-02T11:35:42.455Z,16.00
2023-05-02T11:36:42.583Z,14.40
2023-05-02T11:37:42.464Z,15.30
2023-05-02T11:38:42.437Z,13.50
2023-05-02T11:39:42.246Z,12.80
2023-05-02T11:40:42.407Z,18.70
2023-05-02T11:41:42.412Z,14.60
2023-05-02T11:42:42.521Z,12.70
2023-05-02T11:43:42.394Z,13.60
2023-05-02T11:44:42.376Z,14.00
2023-05-02T11:45:42.398Z,13.90
2023-05-02T11:46:42.415Z,12.90
2023-05-02T11:47:42.336Z,14.80
2023-05-02T11:48:42.286Z,14.40
2023-05-02T11:49:42.282Z,17.50
2023-05-02T11:50:48.591Z,13.00
2023-05-02T11:51:42.352Z,16.80
2023-05-02T11:52:42.303Z,14.60
2023-05-02T11:53:42.378Z,11.90
2023-05-02T11:54:42.228Z,16.40
2023-05-02T11:55:42.206Z,13.10
2023-05-02T11:56:42.194Z,13.10
2023-05-02T11:57:42.296Z,14.60
2023-05-02T11:58:42.272Z,11.30
2023-05-02T11:59:42.234Z,15.20
2023-05-02T12:00:42.210Z,13.30
2023-05-02T12:01:42.119Z,13.70
2023-05-02T12:02:42.374Z,14.10
2023-05-02T12:03:42.376Z,14.80
2023-05-02T12:04:42.162Z,11.80
2023-05-02T12:05:42.179Z,15.40
2023-05-02T12:06:42.133Z,15.60
2023-05-02T12:07:42.111Z,14.40
2023-05-02T12:08:42.147Z,12.40
2023-05-02T12:09:42.177Z,14.60
2023-05-02T12:10:42.099Z,13.90
2023-05-02T12:11:42.104Z,15.00
2023-05-02T12:12:42.090Z,13.20
2023-05-02T12:13:41.929Z,14.10
2023-05-02T12:14:41.911Z,15.00
2023-05-02T12:15:42.029Z,14.60
2023-05-02T12:16:41.896Z,14.70
2023-05-02T12:17:42.143Z,12.00
2023-05-02T12:18:41.956Z,15.60
2023-05-02T12:19:41.904Z,17.00
2023-05-02T12:20:42.006Z,13.00
2023-05-02T12:21:41.995Z,15.50
2023-05-02T12:22:41.969Z,14.60
2023-05-02T12:23:41.969Z,15.50
2023-05-02T12:24:42.026Z,13.30
2023-05-02T12:25:41.941Z,13.70
2023-05-02T12:26:41.760Z,16.30
2023-05-02T12:27:41.868Z,13.70
2023-05-02T12:28:41.938Z,14.50
2023-05-02T12:29:41.916Z,14.20
2023-05-02T12:30:41.895Z,12.70
2023-05-02T12:31:41.839Z,16.10
2023-05-02T12:32:41.854Z,12.90
2023-05-02T12:33:41.832Z,12.40
2023-05-02T12:34:41.639Z,11.00
2023-05-02T12:35:41.825Z,13.90
2023-05-02T12:36:41.724Z,13.60
2023-05-02T12:37:41.646Z,12.00
2023-05-02T12:38:41.767Z,13.40
2023-05-02T12:39:41.662Z,14.10
2023-05-02T12:40:41.624Z,13.10
2023-05-02T12:41:41.853Z,13.70
2023-05-02T12:42:41.767Z,13.60
2023-05-02T12:43:41.586Z,17.00
2023-05-02T12:44:41.726Z,12.40
2023-05-02T12:45:41.587Z,12.70
2023-05-02T12:46:41.610Z,12.80
2023-05-02T12:47:41.606Z,11.80
2023-05-02T12:48:41.636Z,13.80
2023-05-02T12:49:41.523Z,11.10
2023-05-02T12:50:41.667Z,12.70
2023-05-02T12:51:41.654Z,12.20
2023-05-02T12:52:41.744Z,12.50
2023-05-02T12:53:41.656Z,14.10